createdAt,value
2019-03-25T00:00:02.280Z,79.01
2019-03-25T00:02:30.967Z,78.93
2019-03-25T00:04:59.624Z,78.87
2019-03-25T00:07:28.516Z,78.68
2019-03-25T00:09:57.217Z,78.46
2019-03-25T00:12:25.841Z,78.58
2019-03-25T00:14:54.507Z,78.37
2019-03-25T00:17:23.243Z,78.01
2019-03-25T00:19:51.858Z,78.30
2019-03-25T00:22:20.573Z,78.46
2019-03-25T00:24:49.423Z,78.54
2019-03-25T00:27:18.118Z,78.40
2019-03-25T00:29:46.842Z,78.23
2019-03-25T00:32:15.465Z,78.04
2019-03-25T00:34:44.287Z,78.34
2019-03-25T00:37:12.920Z,78.50
2019-03-25T00:39:41.632Z,78.21
2019-03-25T00:42:10.359Z,78.38
2019-03-25T00:44:39.079Z,78.42
2019-03-25T00:47:07.751Z,78.72
2019-03-25T00:49:36.369Z,79.00
2019-03-25T00:52:05.112Z,79.50
2019-03-25T00:54:33.773Z,81.62
2019-03-25T00:57:02.453Z,83.16
2019-03-25T00:59:31.163Z,83.83
2019-03-25T01:01:59.923Z,83.33
2019-03-25T01:04:28.603Z,83.65
2019-03-25T01:06:57.250Z,83.65
2019-03-25T01:09:25.945Z,83.67
2019-03-25T01:11:54.614Z,83.20
2019-03-25T01:14:23.346Z,83.12
2019-03-25T01:16:52.075Z,82.69
2019-03-25T01:19:20.757Z,82.79
2019-03-25T01:21:49.562Z,82.22
2019-03-25T01:24:18.272Z,82.16
2019-03-25T01:26:47.123Z,82.11
2019-03-25T01:29:15.862Z,82.12
2019-03-25T01:31:44.509Z,81.78
2019-03-25T01:34:13.168Z,81.54
2019-03-25T01:36:42.019Z,81.48
2019-03-25T01:39:10.723Z,81.22
2019-03-25T01:41:39.397Z,81.31
2019-03-25T01:44:08.137Z,81.00
2019-03-25T01:46:36.955Z,80.83
2019-03-25T01:49:06.405Z,81.87
2019-03-25T01:51:35.039Z,84.74
2019-03-25T01:54:03.748Z,87.28
2019-03-25T01:56:32.480Z,88.64
2019-03-25T01:59:01.295Z,88.57
2019-03-25T02:01:29.992Z,90.35
2019-03-25T02:03:58.737Z,91.61
2019-03-25T02:06:27.385Z,92.18
2019-03-25T02:08:56.120Z,92.72
2019-03-25T02:11:24.949Z,93.05
2019-03-25T02:13:53.646Z,92.94
2019-03-25T02:16:22.205Z,93.14
2019-03-25T02:18:50.967Z,93.16
2019-03-25T02:21:19.726Z,92.28
2019-03-25T02:23:48.372Z,92.55
2019-03-25T02:26:17.141Z,92.42
2019-03-25T02:28:45.910Z,92.74
2019-03-25T02:31:14.527Z,92.99
2019-03-25T02:33:43.175Z,92.60
2019-03-25T02:36:11.872Z,92.98
2019-03-25T02:38:40.622Z,92.77
2019-03-25T02:41:09.296Z,92.37
2019-03-25T02:43:37.885Z,91.75
2019-03-25T02:46:06.645Z,91.36
2019-03-25T02:48:35.455Z,91.38
2019-03-25T02:51:05.102Z,91.26
2019-03-25T02:53:33.859Z,91.45
2019-03-25T02:56:02.700Z,91.44
2019-03-25T02:58:31.360Z,91.01
2019-03-25T03:01:00.073Z,90.44
2019-03-25T03:03:28.880Z,90.12
2019-03-25T03:05:57.543Z,90.19
2019-03-25T03:08:26.273Z,90.54
2019-03-25T03:10:54.891Z,90.72
2019-03-25T03:13:23.611Z,91.04
2019-03-25T03:15:52.301Z,91.43
2019-03-25T03:18:21.042Z,91.75
2019-03-25T03:20:49.807Z,92.09
2019-03-25T03:23:18.504Z,92.24
2019-03-25T03:25:57.352Z,92.47
2019-03-25T03:28:17.583Z,93.07
2019-03-25T03:30:46.334Z,93.04
2019-03-25T03:33:15.041Z,93.09
2019-03-25T03:35:46.374Z,93.16
2019-03-25T03:38:14.060Z,93.27
2019-03-25T03:40:42.770Z,93.36
2019-03-25T03:43:11.571Z,93.34
2019-03-25T03:45:40.306Z,93.51
2019-03-25T03:48:09.149Z,93.54
2019-03-25T03:50:38.111Z,93.56
2019-03-25T03:53:06.931Z,93.61
2019-03-25T03:55:37.135Z,93.71
2019-03-25T03:58:08.431Z,93.76
2019-03-25T04:00:37.340Z,93.80
2019-03-25T04:03:06.118Z,93.78
2019-03-25T04:05:34.839Z,93.79
2019-03-25T04:08:03.607Z,93.81
2019-03-25T04:10:32.350Z,93.96
2019-03-25T04:13:01.043Z,93.98
2019-03-25T04:15:31.926Z,93.86
2019-03-25T04:18:00.714Z,93.56
2019-03-25T04:20:29.451Z,93.26
2019-03-25T04:22:58.242Z,93.16
2019-03-25T04:25:26.968Z,93.23
2019-03-25T04:27:55.822Z,93.30
2019-03-25T04:30:24.543Z,93.31
2019-03-25T04:32:53.277Z,93.44
2019-03-25T04:35:21.926Z,93.42
2019-03-25T04:37:50.793Z,93.50
2019-03-25T04:40:19.527Z,93.64
2019-03-25T04:42:48.211Z,93.69
2019-03-25T04:45:16.943Z,93.71
2019-03-25T04:47:45.627Z,93.49
2019-03-25T04:50:14.543Z,93.60
2019-03-25T04:52:43.287Z,93.58
2019-03-25T04:55:12.104Z,93.54
2019-03-25T04:57:40.839Z,93.58
2019-03-25T05:00:10.696Z,93.59
2019-03-25T05:02:39.467Z,93.63
2019-03-25T05:05:09.630Z,93.63
2019-03-25T05:07:38.740Z,93.63
2019-03-25T05:10:09.863Z,93.76
2019-03-25T05:12:38.565Z,93.82
2019-03-25T05:15:07.886Z,93.78
2019-03-25T05:17:36.543Z,93.64
2019-03-25T05:20:06.698Z,93.54
2019-03-25T05:22:35.420Z,93.28
2019-03-25T05:25:06.847Z,93.13
2019-03-25T05:27:35.473Z,93.01
2019-03-25T05:30:06.771Z,92.96
2019-03-25T05:32:35.585Z,93.06
2019-03-25T05:35:07.120Z,93.00
2019-03-25T05:37:35.776Z,92.87
2019-03-25T05:40:05.346Z,92.98
2019-03-25T05:42:34.025Z,92.91
2019-03-25T05:45:02.903Z,92.82
2019-03-25T05:47:31.606Z,92.12
2019-03-25T05:50:00.410Z,90.96
2019-03-25T05:52:29.058Z,90.96
2019-03-25T05:54:57.767Z,91.40
2019-03-25T05:57:26.495Z,91.86
2019-03-25T05:59:55.278Z,92.74
2019-03-25T06:02:24.003Z,93.22
2019-03-25T06:04:52.737Z,93.32
2019-03-25T06:07:21.416Z,92.98
2019-03-25T06:09:50.119Z,92.29
2019-03-25T06:12:18.771Z,91.50
2019-03-25T06:14:47.437Z,90.92
2019-03-25T06:17:16.211Z,91.03
2019-03-25T06:19:44.962Z,90.92
2019-03-25T06:22:13.712Z,91.02
2019-03-25T06:24:42.333Z,90.99
2019-03-25T06:27:14.269Z,90.29
2019-03-25T06:29:43.708Z,90.16
2019-03-25T06:32:12.500Z,89.90
2019-03-25T06:34:41.062Z,89.41
2019-03-25T06:37:09.754Z,89.15
2019-03-25T06:39:38.418Z,88.92
2019-03-25T06:42:07.195Z,89.36
2019-03-25T06:44:35.940Z,90.38
2019-03-25T06:47:06.253Z,91.33
2019-03-25T06:49:35.002Z,90.57
2019-03-25T06:52:03.926Z,89.03
2019-03-25T06:54:32.706Z,89.01
2019-03-25T06:57:02.007Z,88.94
2019-03-25T06:59:30.767Z,89.62
2019-03-25T07:01:59.452Z,89.34
2019-03-25T07:04:28.330Z,88.21
2019-03-25T07:06:56.979Z,85.14
2019-03-25T07:09:25.685Z,83.62
2019-03-25T07:11:54.425Z,82.10
2019-03-25T07:14:23.327Z,81.11
2019-03-25T07:16:51.966Z,79.53
2019-03-25T07:19:20.671Z,78.04
2019-03-25T07:21:49.312Z,78.63
2019-03-25T07:24:18.021Z,80.46
2019-03-25T07:26:46.741Z,80.11
2019-03-25T07:29:15.444Z,79.11
2019-03-25T07:31:44.314Z,78.89
2019-03-25T07:34:12.947Z,78.89
2019-03-25T07:36:41.577Z,77.68
2019-03-25T07:39:10.315Z,76.98
2019-03-25T07:41:39.004Z,76.38
2019-03-25T07:44:08.794Z,75.04
2019-03-25T07:46:38.039Z,75.50
2019-03-25T07:49:06.982Z,75.23
2019-03-25T07:51:35.655Z,74.23
2019-03-25T07:54:05.034Z,76.64
2019-03-25T07:56:33.826Z,76.64
2019-03-25T07:59:02.546Z,77.85
2019-03-25T08:01:31.846Z,77.01
2019-03-25T08:04:01.404Z,76.25
2019-03-25T08:06:30.066Z,73.40
2019-03-25T08:09:03.788Z,72.32
2019-03-25T08:11:29.148Z,71.79
2019-03-25T08:13:57.792Z,72.39
2019-03-25T08:16:26.488Z,73.25
2019-03-25T08:18:55.210Z,73.39
2019-03-25T08:21:25.122Z,74.18
2019-03-25T08:23:54.281Z,75.21
2019-03-25T08:26:23.021Z,75.88
2019-03-25T08:28:51.800Z,77.89
2019-03-25T08:31:20.518Z,79.10
2019-03-25T08:33:49.151Z,79.42
2019-03-25T08:36:17.838Z,80.17
2019-03-25T08:38:46.566Z,80.46
2019-03-25T08:41:15.285Z,81.02
2019-03-25T08:43:43.918Z,81.27
2019-03-25T08:46:12.690Z,80.58
2019-03-25T08:48:41.382Z,80.02
2019-03-25T08:51:10.159Z,78.04
2019-03-25T08:53:38.836Z,77.62
2019-03-25T08:56:07.559Z,76.56
2019-03-25T08:58:36.269Z,76.03
2019-03-25T09:01:05.006Z,75.28
2019-03-25T09:03:33.623Z,74.72
2019-03-25T09:06:02.339Z,72.91
2019-03-25T09:08:30.970Z,72.90
2019-03-25T09:10:59.708Z,70.96
2019-03-25T09:13:28.318Z,68.76
2019-03-25T09:15:57.096Z,68.81
2019-03-25T09:18:25.794Z,66.75
2019-03-25T09:20:54.483Z,68.36
2019-03-25T09:23:23.276Z,68.36
2019-03-25T09:25:52.082Z,70.01
2019-03-25T09:28:24.378Z,68.72
2019-03-25T09:30:54.076Z,68.73
2019-03-25T09:33:22.991Z,68.53
2019-03-25T09:35:53.564Z,66.99
2019-03-25T09:38:22.299Z,64.50
2019-03-25T09:40:51.092Z,62.94
2019-03-25T09:43:19.756Z,62.49
2019-03-25T09:45:48.470Z,61.56
2019-03-25T09:48:17.321Z,62.59
2019-03-25T09:50:45.941Z,63.48
2019-03-25T09:53:14.683Z,65.98
2019-03-25T09:55:43.341Z,67.88
2019-03-25T09:58:12.040Z,64.29
2019-03-25T10:00:40.756Z,63.39
2019-03-25T10:03:09.310Z,63.23
2019-03-25T10:05:38.129Z,61.22
2019-03-25T10:08:06.783Z,58.61
2019-03-25T10:10:35.443Z,60.48
2019-03-25T10:13:05.056Z,62.30
2019-03-25T10:15:33.710Z,61.53
2019-03-25T10:18:02.438Z,60.58
2019-03-25T10:20:31.175Z,58.85
2019-03-25T10:22:59.879Z,58.31
2019-03-25T10:25:28.605Z,56.93
2019-03-25T10:27:57.230Z,55.04
2019-03-25T10:30:26.353Z,53.08
2019-03-25T10:32:54.976Z,55.16
2019-03-25T10:35:23.708Z,54.47
2019-03-25T10:37:52.338Z,52.31
2019-03-25T10:40:21.103Z,52.74
2019-03-25T10:42:49.731Z,52.44
2019-03-25T10:45:19.172Z,52.76
2019-03-25T10:47:47.847Z,50.73
2019-03-25T10:50:16.544Z,50.56
2019-03-25T10:52:45.243Z,49.82
2019-03-25T10:55:13.984Z,50.36
2019-03-25T10:57:42.738Z,48.60
2019-03-25T11:00:13.244Z,48.42
2019-03-25T11:02:42.023Z,49.45
2019-03-25T11:05:12.344Z,50.56
2019-03-25T11:10:11.366Z,49.17
2019-03-25T11:12:40.094Z,49.38
2019-03-25T11:15:10.087Z,49.54
2019-03-25T11:17:38.820Z,50.10
2019-03-25T11:20:10.296Z,51.45
2019-03-25T11:22:38.988Z,52.17
2019-03-25T11:25:09.362Z,51.02
2019-03-25T11:27:38.164Z,51.53
2019-03-25T11:30:09.348Z,50.90
2019-03-25T11:32:38.018Z,50.50
2019-03-25T11:35:09.528Z,51.25
2019-03-25T11:37:38.240Z,52.34
2019-03-25T11:40:09.778Z,61.42
2019-03-25T11:42:38.497Z,66.72
2019-03-25T11:45:09.422Z,68.26
2019-03-25T11:47:38.131Z,64.91
2019-03-25T11:50:09.418Z,62.81
2019-03-25T11:52:38.124Z,62.19
2019-03-25T11:55:07.492Z,58.86
2019-03-25T11:57:36.167Z,59.15
2019-03-25T12:00:07.969Z,61.13
2019-03-25T12:02:36.698Z,70.19
2019-03-25T12:05:07.623Z,74.86
2019-03-25T12:07:36.364Z,76.74
2019-03-25T12:10:07.525Z,77.51
2019-03-25T12:12:36.204Z,76.91
2019-03-25T12:15:07.501Z,74.87
2019-03-25T12:17:36.248Z,73.16
2019-03-25T12:20:07.635Z,72.25
2019-03-25T12:22:36.380Z,72.25
2019-03-25T12:25:07.647Z,73.22
2019-03-25T12:27:36.254Z,74.17
2019-03-25T12:30:07.421Z,76.45
2019-03-25T12:32:36.092Z,77.04
2019-03-25T12:35:07.635Z,78.70
2019-03-25T12:37:36.340Z,81.65
2019-03-25T12:40:07.867Z,82.12
2019-03-25T12:42:36.784Z,83.92
2019-03-25T12:45:07.793Z,84.84
2019-03-25T12:47:36.494Z,85.08
2019-03-25T12:50:07.944Z,83.39
2019-03-25T12:52:36.569Z,80.41
2019-03-25T12:55:07.024Z,79.71
2019-03-25T12:57:35.754Z,77.83
2019-03-25T13:00:07.305Z,78.88
2019-03-25T13:02:36.208Z,77.48
2019-03-25T13:05:06.702Z,76.62
2019-03-25T13:07:35.415Z,75.77
2019-03-25T13:10:07.917Z,79.01
2019-03-25T13:12:36.663Z,78.83
2019-03-25T13:15:07.984Z,78.20
2019-03-25T13:17:36.706Z,76.07
2019-03-25T13:20:06.976Z,72.27
2019-03-25T13:22:35.741Z,68.62
2019-03-25T13:25:05.834Z,67.89
2019-03-25T13:27:34.573Z,70.08
2019-03-25T13:30:03.339Z,74.23
2019-03-25T13:32:32.084Z,76.55
2019-03-25T13:35:00.881Z,77.25
2019-03-25T13:37:29.791Z,78.45
2019-03-25T13:39:58.625Z,77.71
2019-03-25T13:42:27.266Z,75.96
2019-03-25T13:44:57.681Z,76.14
2019-03-25T13:47:26.823Z,72.99
2019-03-25T13:49:55.433Z,71.22
2019-03-25T13:52:24.289Z,70.47
2019-03-25T13:54:52.982Z,69.34
2019-03-25T13:57:21.664Z,66.30
2019-03-25T13:59:50.404Z,67.08
2019-03-25T14:02:19.097Z,68.46
2019-03-25T14:04:47.779Z,71.48
2019-03-25T14:07:16.576Z,73.47
2019-03-25T14:09:45.385Z,72.89
2019-03-25T14:12:14.027Z,73.08
2019-03-25T14:14:42.677Z,71.45
2019-03-25T14:17:11.375Z,73.50
2019-03-25T14:19:40.071Z,72.50
2019-03-25T14:22:09.076Z,71.30
2019-03-25T14:24:37.891Z,70.10
2019-03-25T14:27:06.598Z,69.75
2019-03-25T14:29:35.450Z,68.53
2019-03-25T14:32:04.194Z,69.08
2019-03-25T14:34:32.824Z,70.54
2019-03-25T14:37:01.632Z,71.82
2019-03-25T14:39:32.464Z,72.18
2019-03-25T14:42:01.227Z,70.55
2019-03-25T14:44:29.849Z,70.42
2019-03-25T14:46:58.586Z,70.23
2019-03-25T14:49:27.222Z,70.37
2019-03-25T14:51:55.852Z,71.34
2019-03-25T14:54:24.681Z,72.34
2019-03-25T14:56:53.299Z,72.27
2019-03-25T14:59:22.047Z,73.66
2019-03-25T15:01:50.924Z,74.59
2019-03-25T15:04:19.608Z,71.97
2019-03-25T15:06:48.276Z,71.72
2019-03-25T15:09:16.938Z,71.10
2019-03-25T15:11:45.631Z,70.38
2019-03-25T15:14:14.389Z,70.66
2019-03-25T15:16:43.099Z,70.65
2019-03-25T15:19:11.837Z,70.38
2019-03-25T15:21:40.554Z,69.95
2019-03-25T15:24:09.191Z,71.63
2019-03-25T15:26:37.970Z,72.01
2019-03-25T15:29:06.683Z,72.09
2019-03-25T15:31:35.357Z,72.29
2019-03-25T15:34:05.012Z,70.73
2019-03-25T15:36:33.869Z,69.23
2019-03-25T15:39:02.554Z,68.28
2019-03-25T15:41:31.303Z,68.80
2019-03-25T15:43:59.986Z,69.10
2019-03-25T15:46:28.841Z,69.83
2019-03-25T15:48:57.522Z,72.52
2019-03-25T15:51:26.360Z,72.04
2019-03-25T15:53:54.904Z,73.68
2019-03-25T15:56:23.602Z,73.09
2019-03-25T15:58:52.319Z,73.74
2019-03-25T16:01:21.048Z,75.09
2019-03-25T16:03:49.739Z,78.08
2019-03-25T16:06:18.413Z,79.56
2019-03-25T16:08:47.032Z,80.61
2019-03-25T16:11:15.736Z,82.43
2019-03-25T16:13:44.380Z,82.20
2019-03-25T16:16:13.165Z,82.90
2019-03-25T16:18:43.281Z,82.49
2019-03-25T16:21:12.092Z,80.39
2019-03-25T16:23:40.785Z,81.06
2019-03-25T16:26:09.426Z,80.35
2019-03-25T16:28:38.141Z,81.04
2019-03-25T16:31:06.908Z,81.22
2019-03-25T16:33:35.808Z,79.96
2019-03-25T16:36:05.273Z,81.02
2019-03-25T16:38:34.798Z,79.02
2019-03-25T16:41:06.651Z,78.95
2019-03-25T16:43:35.838Z,78.57
2019-03-25T16:46:04.891Z,76.79
2019-03-25T16:48:33.653Z,75.12
2019-03-25T16:51:02.293Z,74.87
2019-03-25T16:53:31.035Z,75.34
2019-03-25T16:56:00.327Z,74.11
2019-03-25T16:58:29.256Z,74.49
2019-03-25T17:01:09.126Z,74.80
2019-03-25T17:03:28.482Z,75.37
2019-03-25T17:05:58.388Z,74.87
2019-03-25T17:08:29.615Z,74.80
2019-03-25T17:11:00.014Z,74.23
2019-03-25T17:13:28.770Z,75.02
2019-03-25T17:15:57.478Z,74.79
2019-03-25T17:18:26.200Z,75.41
2019-03-25T17:20:54.970Z,75.67
2019-03-25T17:23:25.564Z,76.08
2019-03-25T17:25:54.595Z,75.79
2019-03-25T17:28:23.917Z,75.96
2019-03-25T17:30:52.734Z,75.22
2019-03-25T17:33:21.360Z,74.79
2019-03-25T17:35:50.007Z,74.76
2019-03-25T17:38:18.847Z,75.23
2019-03-25T17:40:47.635Z,75.74
2019-03-25T17:43:16.497Z,74.79
2019-03-25T17:45:45.248Z,73.93
2019-03-25T17:48:13.988Z,73.84
2019-03-25T17:50:42.759Z,73.73
2019-03-25T17:53:12.082Z,74.37
2019-03-25T17:55:40.881Z,74.07
2019-03-25T17:58:12.977Z,74.21
2019-03-25T18:00:49.895Z,74.65
2019-03-25T18:03:18.462Z,74.76
2019-03-25T18:05:47.256Z,74.73
2019-03-25T18:08:16.080Z,74.99
2019-03-25T18:10:44.723Z,74.98
2019-03-25T18:13:21.962Z,74.93
2019-03-25T18:15:43.831Z,74.62
2019-03-25T18:18:12.516Z,74.33
2019-03-25T18:20:41.218Z,75.44
2019-03-25T18:23:09.982Z,74.79
2019-03-25T18:25:38.682Z,75.17
2019-03-25T18:28:08.514Z,75.98
2019-03-25T18:30:39.803Z,75.19
2019-03-25T18:33:09.779Z,75.28
2019-03-25T18:35:38.456Z,75.32
2019-03-25T18:38:07.249Z,75.09
2019-03-25T18:40:36.655Z,75.99
2019-03-25T18:43:05.469Z,75.46
2019-03-25T18:45:34.207Z,75.85
2019-03-25T18:48:02.930Z,75.37
2019-03-25T18:50:31.649Z,75.71
2019-03-25T18:53:00.415Z,75.09
2019-03-25T18:55:29.140Z,75.07
2019-03-25T18:57:57.837Z,75.34
2019-03-25T19:00:34.854Z,75.26
2019-03-25T19:03:05.402Z,75.00
2019-03-25T19:05:35.193Z,75.33
2019-03-25T19:08:05.566Z,76.11
2019-03-25T19:10:34.360Z,76.42
2019-03-25T19:13:03.068Z,76.25
2019-03-25T19:15:31.765Z,76.59
2019-03-25T19:18:00.613Z,76.25
2019-03-25T19:20:29.330Z,76.15
2019-03-25T19:22:58.103Z,76.41
2019-03-25T19:25:26.908Z,76.42
2019-03-25T19:27:55.519Z,76.53
2019-03-25T19:30:24.247Z,76.75
2019-03-25T19:32:53.006Z,77.20
2019-03-25T19:35:21.794Z,77.20
2019-03-25T19:37:50.778Z,77.37
2019-03-25T19:40:19.543Z,77.37
2019-03-25T19:42:48.278Z,77.37
2019-03-25T19:45:17.620Z,77.32
2019-03-25T19:47:46.375Z,77.45
2019-03-25T19:50:15.955Z,77.64
2019-03-25T19:52:44.587Z,78.17
2019-03-25T19:55:13.434Z,77.82
2019-03-25T19:57:42.290Z,78.08
2019-03-25T20:00:15.036Z,78.62
2019-03-25T20:02:44.737Z,78.96
2019-03-25T20:05:13.561Z,79.16
2019-03-25T20:07:42.363Z,79.62
2019-03-25T20:10:14.126Z,79.71
2019-03-25T20:12:43.807Z,79.69
2019-03-25T20:15:12.696Z,79.85
2019-03-25T20:17:41.368Z,79.85
2019-03-25T20:20:10.264Z,80.12
2019-03-25T20:22:39.067Z,80.62
2019-03-25T20:25:07.800Z,80.12
2019-03-25T20:27:36.562Z,80.04
2019-03-25T20:30:11.032Z,80.22
2019-03-25T20:32:39.934Z,80.56
2019-03-25T20:35:08.860Z,81.23
2019-03-25T20:37:37.602Z,81.56
2019-03-25T20:40:09.061Z,81.98
2019-03-25T20:42:38.584Z,82.13
2019-03-25T20:45:09.076Z,82.42
2019-03-25T20:47:37.834Z,82.79
2019-03-25T20:50:07.081Z,82.68
2019-03-25T20:52:35.844Z,83.07
2019-03-25T20:55:31.688Z,83.13
2019-03-25T20:58:00.537Z,83.13
2019-03-25T21:00:58.842Z,83.26
2019-03-25T21:03:28.405Z,83.25
2019-03-25T21:05:57.108Z,83.45
2019-03-25T21:08:25.913Z,83.69
2019-03-25T21:10:54.835Z,83.82
2019-03-25T21:13:23.694Z,83.72
2019-03-25T21:15:52.685Z,83.89
2019-03-25T21:18:37.992Z,83.93
2019-03-25T21:21:07.797Z,84.30
2019-03-25T21:23:37.415Z,85.11
2019-03-25T21:26:06.211Z,85.08
2019-03-25T21:28:41.543Z,84.70
2019-03-25T21:31:14.349Z,84.99
2019-03-25T21:33:43.181Z,85.16
2019-03-25T21:36:12.079Z,85.45
2019-03-25T21:38:40.981Z,85.69
2019-03-25T21:41:10.246Z,85.81
2019-03-25T21:43:39.022Z,86.23
2019-03-25T21:46:07.844Z,86.19
2019-03-25T21:48:39.931Z,86.25
2019-03-25T21:51:08.946Z,86.37
2019-03-25T21:53:37.656Z,86.70
2019-03-25T21:56:08.127Z,87.00
2019-03-25T21:58:45.257Z,87.30
2019-03-25T22:01:14.027Z,87.74
2019-03-25T22:03:43.834Z,87.96
2019-03-25T22:06:18.346Z,88.05
2019-03-25T22:08:47.067Z,88.06
2019-03-25T22:11:15.856Z,88.25
2019-03-25T22:13:44.569Z,88.16
2019-03-25T22:16:15.627Z,88.08
2019-03-25T22:18:44.437Z,87.71
2019-03-25T22:21:13.162Z,87.22
2019-03-25T22:23:41.950Z,87.12
2019-03-25T22:26:10.815Z,87.24
2019-03-25T22:28:39.437Z,87.31
2019-03-25T22:31:08.165Z,86.75
2019-03-25T22:33:36.925Z,86.93
2019-03-25T22:36:05.721Z,86.81
2019-03-25T22:38:34.447Z,86.97
2019-03-25T22:41:03.073Z,87.05
2019-03-25T22:43:34.744Z,86.85
2019-03-25T22:46:04.462Z,86.77
2019-03-25T22:48:33.952Z,86.93
2019-03-25T22:51:03.685Z,86.40
2019-03-25T22:53:33.125Z,86.56
2019-03-25T22:56:02.980Z,86.37
2019-03-25T22:58:32.872Z,86.47
2019-03-25T23:01:04.259Z,86.30
2019-03-25T23:03:39.005Z,86.61
2019-03-25T23:06:05.353Z,87.17
2019-03-25T23:08:34.967Z,87.45
2019-03-25T23:11:04.625Z,87.54
2019-03-25T23:13:34.592Z,87.49
2019-03-25T23:16:04.097Z,86.86
2019-03-25T23:18:33.634Z,86.52
2019-03-25T23:21:03.275Z,86.35
2019-03-25T23:23:32.786Z,86.36
2019-03-25T23:26:02.417Z,86.31
2019-03-25T23:28:32.101Z,86.12
2019-03-25T23:31:01.556Z,86.22
2019-03-25T23:33:31.048Z,86.25
2019-03-25T23:36:00.856Z,86.36
2019-03-25T23:38:30.415Z,86.19
2019-03-25T23:40:59.046Z,86.12
2019-03-25T23:43:27.936Z,85.81
2019-03-25T23:45:56.576Z,85.10
2019-03-25T23:48:25.124Z,84.64
2019-03-25T23:50:53.869Z,84.55
2019-03-25T23:53:22.521Z,84.76
2019-03-25T23:55:51.218Z,84.75
2019-03-25T23:58:19.921Z,84.56
